sensor_id;sensor_type;location;lat;lon;timestamp;temperature;humidity
53045;DHT22;38930;52.766;6.884;2023-07-20T00:01:45;16.20;99.90
53045;DHT22;38930;52.766;6.884;2023-07-20T00:04:13;16.30;99.90
53045;DHT22;38930;52.766;6.884;2023-07-20T00:06:39;16.30;99.90
53045;DHT22;38930;52.766;6.884;2023-07-20T00:09:06;16.30;99.90
53045;DHT22;38930;52.766;6.884;2023-07-20T00:11:32;16.30;99.90
53045;DHT22;38930;52.766;6.884;2023-07-20T00:14:00;16.30;99.90
53045;DHT22;38930;52.766;6.884;2023-07-20T00:16:26;16.30;99.90
53045;DHT22;38930;52.766;6.884;2023-07-20T00:18:52;16.30;99.90
53045;DHT22;38930;52.766;6.884;2023-07-20T00:21:17;16.20;99.90
53045;DHT22;38930;52.766;6.884;2023-07-20T00:23:43;16.20;99.90
53045;DHT22;38930;52.766;6.884;2023-07-20T00:26:08;16.20;99.90
53045;DHT22;38930;52.766;6.884;2023-07-20T00:28:34;16.20;99.90
53045;DHT22;38930;52.766;6.884;2023-07-20T00:31:00;16.10;99.90
53045;DHT22;38930;52.766;6.884;2023-07-20T00:33:26;16.10;99.90
53045;DHT22;38930;52.766;6.884;2023-07-20T00:35:52;16.10;99.90
53045;DHT22;38930;52.766;6.884;2023-07-20T00:38:18;16.10;99.90
53045;DHT22;38930;52.766;6.884;2023-07-20T00:40:43;16.10;99.90
53045;DHT22;38930;52.766;6.884;2023-07-20T00:43:09;16.10;99.90
53045;DHT22;38930;52.766;6.884;2023-07-20T00:45:36;16.10;99.90
53045;DHT22;38930;52.766;6.884;2023-07-20T00:48:02;16.10;99.90
53045;DHT22;38930;52.766;6.884;2023-07-20T00:50:29;16.10;99.90
53045;DHT22;38930;52.766;6.884;2023-07-20T00:52:56;16.10;99.90
53045;DHT22;38930;52.766;6.884;2023-07-20T00:55:23;16.00;99.90
53045;DHT22;38930;52.766;6.884;2023-07-20T00:57:49;16.00;99.90
53045;DHT22;38930;52.766;6.884;2023-07-20T01:00:16;16.00;99.90
53045;DHT22;38930;52.766;6.884;2023-07-20T01:02:41;16.00;99.90
53045;DHT22;38930;52.766;6.884;2023-07-20T01:05:08;16.00;99.90
53045;DHT22;38930;52.766;6.884;2023-07-20T01:07:41;16.00;99.90
53045;DHT22;38930;52.766;6.884;2023-07-20T01:10:20;15.90;99.90
53045;DHT22;38930;52.766;6.884;2023-07-20T01:12:52;15.90;99.90
53045;DHT22;38930;52.766;6.884;2023-07-20T01:15:18;15.90;99.90
53045;DHT22;38930;52.766;6.884;2023-07-20T01:17:44;15.90;99.90
53045;DHT22;38930;52.766;6.884;2023-07-20T01:20:13;15.90;99.90
53045;DHT22;38930;52.766;6.884;2023-07-20T01:25:44;15.90;99.90
53045;DHT22;38930;52.766;6.884;2023-07-20T01:28:41;15.90;99.90
53045;DHT22;38930;52.766;6.884;2023-07-20T01:31:19;15.90;99.90
53045;DHT22;38930;52.766;6.884;2023-07-20T01:33:47;15.80;99.90
53045;DHT22;38930;52.766;6.884;2023-07-20T01:36:14;15.90;99.90
53045;DHT22;38930;52.766;6.884;2023-07-20T01:38:42;15.80;99.90
53045;DHT22;38930;52.766;6.884;2023-07-20T01:41:07;15.80;99.90
53045;DHT22;38930;52.766;6.884;2023-07-20T01:43:34;15.80;99.90
53045;DHT22;38930;52.766;6.884;2023-07-20T01:45:59;15.80;99.90
53045;DHT22;38930;52.766;6.884;2023-07-20T01:48:25;15.60;99.90
53045;DHT22;38930;52.766;6.884;2023-07-20T01:50:51;15.70;99.90
53045;DHT22;38930;52.766;6.884;2023-07-20T01:53:16;15.70;99.90
53045;DHT22;38930;52.766;6.884;2023-07-20T01:55:42;15.60;99.90
53045;DHT22;38930;52.766;6.884;2023-07-20T01:58:07;15.60;99.90
53045;DHT22;38930;52.766;6.884;2023-07-20T02:00:33;15.70;99.90
53045;DHT22;38930;52.766;6.884;2023-07-20T02:02:59;15.60;99.90
53045;DHT22;38930;52.766;6.884;2023-07-20T02:05:24;15.60;99.90
53045;DHT22;38930;52.766;6.884;2023-07-20T02:07:50;15.50;99.90
53045;DHT22;38930;52.766;6.884;2023-07-20T02:10:16;15.50;99.90
53045;DHT22;38930;52.766;6.884;2023-07-20T02:12:42;15.50;99.90
53045;DHT22;38930;52.766;6.884;2023-07-20T02:15:08;15.50;99.90
53045;DHT22;38930;52.766;6.884;2023-07-20T02:17:34;15.40;99.90
53045;DHT22;38930;52.766;6.884;2023-07-20T02:20:00;15.40;99.90
53045;DHT22;38930;52.766;6.884;2023-07-20T02:22:25;15.30;99.90
53045;DHT22;38930;52.766;6.884;2023-07-20T02:24:51;15.20;99.90
53045;DHT22;38930;52.766;6.884;2023-07-20T02:27:17;15.10;99.90
53045;DHT22;38930;52.766;6.884;2023-07-20T02:29:42;15.10;99.90
53045;DHT22;38930;52.766;6.884;2023-07-20T02:32:08;15.10;99.90
53045;DHT22;38930;52.766;6.884;2023-07-20T02:34:37;15.00;99.90
53045;DHT22;38930;52.766;6.884;2023-07-20T02:37:03;15.00;99.90
53045;DHT22;38930;52.766;6.884;2023-07-20T02:39:28;14.90;99.90
53045;DHT22;38930;52.766;6.884;2023-07-20T02:41:54;14.90;99.90
53045;DHT22;38930;52.766;6.884;2023-07-20T02:44:20;14.80;99.90
53045;DHT22;38930;52.766;6.884;2023-07-20T02:46:46;14.70;99.90
53045;DHT22;38930;52.766;6.884;2023-07-20T02:49:12;14.70;99.90
53045;DHT22;38930;52.766;6.884;2023-07-20T02:51:37;14.70;99.90
53045;DHT22;38930;52.766;6.884;2023-07-20T02:54:03;14.60;99.90
53045;DHT22;38930;52.766;6.884;2023-07-20T02:56:29;14.60;99.90
53045;DHT22;38930;52.766;6.884;2023-07-20T02:58:54;14.70;99.90
53045;DHT22;38930;52.766;6.884;2023-07-20T03:01:20;14.60;99.90
53045;DHT22;38930;52.766;6.884;2023-07-20T03:03:46;14.70;99.90
53045;DHT22;38930;52.766;6.884;2023-07-20T03:06:16;14.60;99.90
53045;DHT22;38930;52.766;6.884;2023-07-20T03:08:42;14.60;99.90
53045;DHT22;38930;52.766;6.884;2023-07-20T03:11:16;14.60;99.90
53045;DHT22;38930;52.766;6.884;2023-07-20T03:13:42;14.50;99.90
53045;DHT22;38930;52.766;6.884;2023-07-20T03:16:08;14.50;99.90
53045;DHT22;38930;52.766;6.884;2023-07-20T03:18:39;14.50;99.90
53045;DHT22;38930;52.766;6.884;2023-07-20T03:21:07;14.40;99.90
53045;DHT22;38930;52.766;6.884;2023-07-20T03:23:33;14.40;99.90
53045;DHT22;38930;52.766;6.884;2023-07-20T03:25:58;14.30;99.90
53045;DHT22;38930;52.766;6.884;2023-07-20T03:28:24;14.30;99.90
53045;DHT22;38930;52.766;6.884;2023-07-20T03:30:56;14.30;99.90
53045;DHT22;38930;52.766;6.884;2023-07-20T03:33:24;14.20;99.90
53045;DHT22;38930;52.766;6.884;2023-07-20T03:35:50;14.20;99.90
53045;DHT22;38930;52.766;6.884;2023-07-20T03:38:16;14.10;99.90
53045;DHT22;38930;52.766;6.884;2023-07-20T03:41:02;14.10;99.90
53045;DHT22;38930;52.766;6.884;2023-07-20T03:43:28;14.00;99.90
53045;DHT22;38930;52.766;6.884;2023-07-20T03:45:54;14.10;99.90
53045;DHT22;38930;52.766;6.884;2023-07-20T03:48:21;14.00;99.90
53045;DHT22;38930;52.766;6.884;2023-07-20T03:50:48;14.00;99.90
53045;DHT22;38930;52.766;6.884;2023-07-20T03:53:17;14.00;99.90
53045;DHT22;38930;52.766;6.884;2023-07-20T03:55:47;13.90;99.90
53045;DHT22;38930;52.766;6.884;2023-07-20T03:58:14;13.90;99.90
53045;DHT22;38930;52.766;6.884;2023-07-20T04:00:39;13.90;99.90
53045;DHT22;38930;52.766;6.884;2023-07-20T04:03:06;14.00;99.90
53045;DHT22;38930;52.766;6.884;2023-07-20T04:05:31;13.90;99.90
53045;DHT22;38930;52.766;6.884;2023-07-20T04:07:58;13.90;99.90
53045;DHT22;38930;52.766;6.884;2023-07-20T04:10:24;13.80;99.90
53045;DHT22;38930;52.766;6.884;2023-07-20T04:12:50;13.80;99.90
53045;DHT22;38930;52.766;6.884;2023-07-20T04:15:16;13.80;99.90
53045;DHT22;38930;52.766;6.884;2023-07-20T04:17:41;13.90;99.90
53045;DHT22;38930;52.766;6.884;2023-07-20T04:20:08;13.90;99.90
53045;DHT22;38930;52.766;6.884;2023-07-20T04:22:34;13.90;99.90
53045;DHT22;38930;52.766;6.884;2023-07-20T04:24:59;13.90;99.90
53045;DHT22;38930;52.766;6.884;2023-07-20T04:27:25;13.80;99.90
53045;DHT22;38930;52.766;6.884;2023-07-20T04:29:51;13.80;99.90
53045;DHT22;38930;52.766;6.884;2023-07-20T04:32:17;13.80;99.90
53045;DHT22;38930;52.766;6.884;2023-07-20T04:34:43;13.80;99.90
53045;DHT22;38930;52.766;6.884;2023-07-20T04:37:09;13.70;99.90
53045;DHT22;38930;52.766;6.884;2023-07-20T04:39:34;13.80;99.90
53045;DHT22;38930;52.766;6.884;2023-07-20T04:42:00;13.80;99.90
53045;DHT22;38930;52.766;6.884;2023-07-20T04:44:26;13.70;99.90
53045;DHT22;38930;52.766;6.884;2023-07-20T04:46:51;13.80;99.90
53045;DHT22;38930;52.766;6.884;2023-07-20T04:49:17;13.80;99.90
53045;DHT22;38930;52.766;6.884;2023-07-20T04:51:42;13.80;99.90
53045;DHT22;38930;52.766;6.884;2023-07-20T04:54:08;13.80;99.90
53045;DHT22;38930;52.766;6.884;2023-07-20T04:56:34;13.70;99.90
53045;DHT22;38930;52.766;6.884;2023-07-20T04:58:59;13.70;99.90
53045;DHT22;38930;52.766;6.884;2023-07-20T05:01:25;13.80;99.90
53045;DHT22;38930;52.766;6.884;2023-07-20T05:03:52;13.80;99.90
53045;DHT22;38930;52.766;6.884;2023-07-20T05:06:18;13.80;99.90
53045;DHT22;38930;52.766;6.884;2023-07-20T05:08:44;13.70;99.90
53045;DHT22;38930;52.766;6.884;2023-07-20T05:11:11;13.80;99.90
53045;DHT22;38930;52.766;6.884;2023-07-20T05:13:37;13.80;99.90
53045;DHT22;38930;52.766;6.884;2023-07-20T05:16:03;13.80;99.90
53045;DHT22;38930;52.766;6.884;2023-07-20T05:18:28;13.80;99.90
53045;DHT22;38930;52.766;6.884;2023-07-20T05:20:54;13.80;99.90
53045;DHT22;38930;52.766;6.884;2023-07-20T05:23:20;13.90;99.90
53045;DHT22;38930;52.766;6.884;2023-07-20T05:25:47;13.80;99.90
53045;DHT22;38930;52.766;6.884;2023-07-20T05:28:12;13.90;99.90
53045;DHT22;38930;52.766;6.884;2023-07-20T05:30:39;13.90;99.90
53045;DHT22;38930;52.766;6.884;2023-07-20T05:33:05;13.90;99.90
53045;DHT22;38930;52.766;6.884;2023-07-20T05:35:31;13.90;99.90
53045;DHT22;38930;52.766;6.884;2023-07-20T05:37:56;14.10;99.90
53045;DHT22;38930;52.766;6.884;2023-07-20T05:40:25;14.20;99.90
53045;DHT22;38930;52.766;6.884;2023-07-20T05:42:51;14.30;99.90
53045;DHT22;38930;52.766;6.884;2023-07-20T05:45:19;14.50;99.90
53045;DHT22;38930;52.766;6.884;2023-07-20T05:47:46;14.70;99.90
53045;DHT22;38930;52.766;6.884;2023-07-20T05:50:12;14.90;99.90
53045;DHT22;38930;52.766;6.884;2023-07-20T05:52:37;15.10;99.90
53045;DHT22;38930;52.766;6.884;2023-07-20T05:55:05;15.40;99.90
53045;DHT22;38930;52.766;6.884;2023-07-20T05:57:30;15.60;99.90
53045;DHT22;38930;52.766;6.884;2023-07-20T05:59:56;15.90;99.90
53045;DHT22;38930;52.766;6.884;2023-07-20T06:02:22;16.10;99.90
53045;DHT22;38930;52.766;6.884;2023-07-20T06:04:48;16.40;99.90
53045;DHT22;38930;52.766;6.884;2023-07-20T06:07:13;16.60;99.90
53045;DHT22;38930;52.766;6.884;2023-07-20T06:09:39;16.80;99.90
53045;DHT22;38930;52.766;6.884;2023-07-20T06:12:05;17.00;99.90
53045;DHT22;38930;52.766;6.884;2023-07-20T06:14:31;17.30;99.90
53045;DHT22;38930;52.766;6.884;2023-07-20T06:16:57;17.40;99.90
53045;DHT22;38930;52.766;6.884;2023-07-20T06:19:22;17.50;99.90
53045;DHT22;38930;52.766;6.884;2023-07-20T06:21:48;17.70;99.90
53045;DHT22;38930;52.766;6.884;2023-07-20T06:24:16;17.80;99.90
53045;DHT22;38930;52.766;6.884;2023-07-20T06:26:41;18.00;99.90
53045;DHT22;38930;52.766;6.884;2023-07-20T06:29:08;18.10;99.90
53045;DHT22;38930;52.766;6.884;2023-07-20T06:31:34;18.20;99.90
53045;DHT22;38930;52.766;6.884;2023-07-20T06:34:00;18.20;99.90
53045;DHT22;38930;52.766;6.884;2023-07-20T06:36:26;18.20;99.90
53045;DHT22;38930;52.766;6.884;2023-07-20T06:38:52;18.20;99.90
53045;DHT22;38930;52.766;6.884;2023-07-20T06:41:18;18.10;99.90
53045;DHT22;38930;52.766;6.884;2023-07-20T06:43:44;18.10;99.90
53045;DHT22;38930;52.766;6.884;2023-07-20T06:46:10;18.10;99.90
53045;DHT22;38930;52.766;6.884;2023-07-20T06:48:36;18.10;99.90
53045;DHT22;38930;52.766;6.884;2023-07-20T06:51:01;18.20;99.90
53045;DHT22;38930;52.766;6.884;2023-07-20T06:53:28;18.20;99.90
53045;DHT22;38930;52.766;6.884;2023-07-20T06:55:54;18.30;99.90
53045;DHT22;38930;52.766;6.884;2023-07-20T06:58:22;18.40;99.90
53045;DHT22;38930;52.766;6.884;2023-07-20T07:00:48;18.40;99.90
53045;DHT22;38930;52.766;6.884;2023-07-20T07:03:14;18.60;99.90
53045;DHT22;38930;52.766;6.884;2023-07-20T07:05:39;18.70;99.90
53045;DHT22;38930;52.766;6.884;2023-07-20T07:08:05;18.80;99.90
53045;DHT22;38930;52.766;6.884;2023-07-20T07:10:31;18.90;99.90
53045;DHT22;38930;52.766;6.884;2023-07-20T07:12:57;19.00;99.90
53045;DHT22;38930;52.766;6.884;2023-07-20T07:15:22;18.90;99.90
53045;DHT22;38930;52.766;6.884;2023-07-20T07:17:48;18.90;99.90
53045;DHT22;38930;52.766;6.884;2023-07-20T07:20:14;18.90;99.90
53045;DHT22;38930;52.766;6.884;2023-07-20T07:22:39;18.90;99.90
53045;DHT22;38930;52.766;6.884;2023-07-20T07:25:05;18.90;99.90
53045;DHT22;38930;52.766;6.884;2023-07-20T07:27:33;18.80;99.90
53045;DHT22;38930;52.766;6.884;2023-07-20T07:29:58;18.80;99.90
53045;DHT22;38930;52.766;6.884;2023-07-20T07:32:24;18.70;99.90
53045;DHT22;38930;52.766;6.884;2023-07-20T07:34:50;18.60;99.90
53045;DHT22;38930;52.766;6.884;2023-07-20T07:37:15;18.60;99.90
53045;DHT22;38930;52.766;6.884;2023-07-20T07:39:42;18.60;99.90
53045;DHT22;38930;52.766;6.884;2023-07-20T07:42:08;18.60;99.90
53045;DHT22;38930;52.766;6.884;2023-07-20T07:44:33;18.60;99.90
53045;DHT22;38930;52.766;6.884;2023-07-20T07:46:59;18.80;99.90
53045;DHT22;38930;52.766;6.884;2023-07-20T07:49:25;19.10;99.90
53045;DHT22;38930;52.766;6.884;2023-07-20T07:51:50;19.20;99.90
53045;DHT22;38930;52.766;6.884;2023-07-20T07:54:16;19.40;99.90
53045;DHT22;38930;52.766;6.884;2023-07-20T07:56:42;19.50;99.90
53045;DHT22;38930;52.766;6.884;2023-07-20T07:59:09;19.50;99.90
53045;DHT22;38930;52.766;6.884;2023-07-20T08:01:35;19.50;99.90
53045;DHT22;38930;52.766;6.884;2023-07-20T08:04:00;19.50;99.90
53045;DHT22;38930;52.766;6.884;2023-07-20T08:06:26;19.30;99.90
53045;DHT22;38930;52.766;6.884;2023-07-20T08:08:52;19.40;99.90
53045;DHT22;38930;52.766;6.884;2023-07-20T08:11:17;19.60;99.90
53045;DHT22;38930;52.766;6.884;2023-07-20T08:13:43;19.70;99.90
53045;DHT22;38930;52.766;6.884;2023-07-20T08:16:09;19.80;99.90
53045;DHT22;38930;52.766;6.884;2023-07-20T08:18:35;19.80;99.90
53045;DHT22;38930;52.766;6.884;2023-07-20T08:21:00;19.70;99.90
53045;DHT22;38930;52.766;6.884;2023-07-20T08:23:26;19.70;99.90
53045;DHT22;38930;52.766;6.884;2023-07-20T08:25:53;19.90;99.90
53045;DHT22;38930;52.766;6.884;2023-07-20T08:28:18;20.10;99.90
53045;DHT22;38930;52.766;6.884;2023-07-20T08:30:46;20.10;99.90
53045;DHT22;38930;52.766;6.884;2023-07-20T08:33:16;20.00;99.90
53045;DHT22;38930;52.766;6.884;2023-07-20T08:35:43;20.00;99.90
53045;DHT22;38930;52.766;6.884;2023-07-20T08:38:09;20.00;99.90
53045;DHT22;38930;52.766;6.884;2023-07-20T08:40:40;20.10;99.90
53045;DHT22;38930;52.766;6.884;2023-07-20T08:43:06;20.30;99.90
53045;DHT22;38930;52.766;6.884;2023-07-20T08:45:33;20.40;99.90
53045;DHT22;38930;52.766;6.884;2023-07-20T08:48:00;20.30;99.90
53045;DHT22;38930;52.766;6.884;2023-07-20T08:50:27;20.20;99.90
53045;DHT22;38930;52.766;6.884;2023-07-20T08:52:57;20.00;99.90
53045;DHT22;38930;52.766;6.884;2023-07-20T08:55:24;19.70;99.90
53045;DHT22;38930;52.766;6.884;2023-07-20T08:57:54;19.50;99.90
53045;DHT22;38930;52.766;6.884;2023-07-20T09:00:21;19.50;99.90
53045;DHT22;38930;52.766;6.884;2023-07-20T09:02:52;19.60;99.90
53045;DHT22;38930;52.766;6.884;2023-07-20T09:05:22;19.80;99.90
53045;DHT22;38930;52.766;6.884;2023-07-20T09:07:49;20.10;99.90
53045;DHT22;38930;52.766;6.884;2023-07-20T09:10:15;20.30;99.90
53045;DHT22;38930;52.766;6.884;2023-07-20T09:12:44;20.50;99.90
53045;DHT22;38930;52.766;6.884;2023-07-20T09:15:11;20.60;99.90
53045;DHT22;38930;52.766;6.884;2023-07-20T09:17:37;20.60;99.90
53045;DHT22;38930;52.766;6.884;2023-07-20T09:20:07;20.70;99.90
53045;DHT22;38930;52.766;6.884;2023-07-20T09:22:37;20.70;99.90
53045;DHT22;38930;52.766;6.884;2023-07-20T09:25:10;20.60;99.90
53045;DHT22;38930;52.766;6.884;2023-07-20T09:27:40;20.40;99.90
53045;DHT22;38930;52.766;6.884;2023-07-20T09:30:06;20.30;99.90
53045;DHT22;38930;52.766;6.884;2023-07-20T09:32:39;20.20;99.90
53045;DHT22;38930;52.766;6.884;2023-07-20T09:35:06;20.30;99.90
53045;DHT22;38930;52.766;6.884;2023-07-20T09:37:33;20.30;99.90
53045;DHT22;38930;52.766;6.884;2023-07-20T09:39:59;20.40;99.90
53045;DHT22;38930;52.766;6.884;2023-07-20T09:42:25;20.50;99.90
53045;DHT22;38930;52.766;6.884;2023-07-20T09:44:52;20.60;99.90
53045;DHT22;38930;52.766;6.884;2023-07-20T09:47:22;20.70;99.90
53045;DHT22;38930;52.766;6.884;2023-07-20T09:49:48;20.60;99.90
53045;DHT22;38930;52.766;6.884;2023-07-20T09:52:15;20.70;99.90
53045;DHT22;38930;52.766;6.884;2023-07-20T09:54:44;20.60;99.90
53045;DHT22;38930;52.766;6.884;2023-07-20T09:57:11;20.70;99.90
53045;DHT22;38930;52.766;6.884;2023-07-20T09:59:39;20.70;99.90
53045;DHT22;38930;52.766;6.884;2023-07-20T10:02:13;20.80;99.90
53045;DHT22;38930;52.766;6.884;2023-07-20T10:04:40;20.80;99.90
53045;DHT22;38930;52.766;6.884;2023-07-20T10:07:10;20.60;99.90
53045;DHT22;38930;52.766;6.884;2023-07-20T10:09:39;20.60;99.90
53045;DHT22;38930;52.766;6.884;2023-07-20T10:12:07;20.80;99.90
53045;DHT22;38930;52.766;6.884;2023-07-20T10:14:35;20.90;99.90
53045;DHT22;38930;52.766;6.884;2023-07-20T10:17:05;21.00;99.90
53045;DHT22;38930;52.766;6.884;2023-07-20T10:19:42;21.10;99.90
53045;DHT22;38930;52.766;6.884;2023-07-20T10:22:15;21.20;99.90
53045;DHT22;38930;52.766;6.884;2023-07-20T10:24:45;21.20;99.90
53045;DHT22;38930;52.766;6.884;2023-07-20T10:27:12;21.30;99.90
53045;DHT22;38930;52.766;6.884;2023-07-20T10:29:40;21.40;99.90
53045;DHT22;38930;52.766;6.884;2023-07-20T10:32:08;21.40;99.90
53045;DHT22;38930;52.766;6.884;2023-07-20T10:34:34;21.40;99.90
53045;DHT22;38930;52.766;6.884;2023-07-20T10:37:00;21.40;99.90
53045;DHT22;38930;52.766;6.884;2023-07-20T10:39:27;21.40;99.90
53045;DHT22;38930;52.766;6.884;2023-07-20T10:42:09;21.40;99.90
53045;DHT22;38930;52.766;6.884;2023-07-20T10:44:41;21.40;99.90
53045;DHT22;38930;52.766;6.884;2023-07-20T10:47:11;21.50;99.90
53045;DHT22;38930;52.766;6.884;2023-07-20T10:49:57;21.60;99.90
53045;DHT22;38930;52.766;6.884;2023-07-20T10:52:23;21.70;99.90
53045;DHT22;38930;52.766;6.884;2023-07-20T10:54:49;21.80;99.90
53045;DHT22;38930;52.766;6.884;2023-07-20T10:57:23;22.00;99.90
53045;DHT22;38930;52.766;6.884;2023-07-20T10:59:49;22.10;99.90
53045;DHT22;38930;52.766;6.884;2023-07-20T11:02:18;22.10;99.90
53045;DHT22;38930;52.766;6.884;2023-07-20T11:04:46;22.10;99.90
53045;DHT22;38930;52.766;6.884;2023-07-20T11:07:16;22.10;99.90
53045;DHT22;38930;52.766;6.884;2023-07-20T11:09:43;22.00;99.90
53045;DHT22;38930;52.766;6.884;2023-07-20T11:12:13;22.00;99.90
53045;DHT22;38930;52.766;6.884;2023-07-20T11:14:53;21.90;99.90
53045;DHT22;38930;52.766;6.884;2023-07-20T11:17:19;21.70;99.90
53045;DHT22;38930;52.766;6.884;2023-07-20T11:19:55;21.60;99.90
53045;DHT22;38930;52.766;6.884;2023-07-20T11:22:21;21.50;99.90
53045;DHT22;38930;52.766;6.884;2023-07-20T11:24:47;21.40;99.90
53045;DHT22;38930;52.766;6.884;2023-07-20T11:27:14;21.30;99.90
53045;DHT22;38930;52.766;6.884;2023-07-20T11:29:40;21.30;99.90
53045;DHT22;38930;52.766;6.884;2023-07-20T11:32:06;21.20;99.90
53045;DHT22;38930;52.766;6.884;2023-07-20T11:34:34;21.20;99.90
53045;DHT22;38930;52.766;6.884;2023-07-20T11:37:00;21.20;99.90
53045;DHT22;38930;52.766;6.884;2023-07-20T11:39:26;21.20;99.90
53045;DHT22;38930;52.766;6.884;2023-07-20T11:41:54;21.20;99.90
53045;DHT22;38930;52.766;6.884;2023-07-20T11:44:21;21.20;99.90
53045;DHT22;38930;52.766;6.884;2023-07-20T11:47:09;21.10;99.90
53045;DHT22;38930;52.766;6.884;2023-07-20T11:49:43;21.10;99.90
53045;DHT22;38930;52.766;6.884;2023-07-20T11:52:11;21.10;99.90
53045;DHT22;38930;52.766;6.884;2023-07-20T11:54:39;21.10;99.90
53045;DHT22;38930;52.766;6.884;2023-07-20T11:57:05;21.00;99.90
53045;DHT22;38930;52.766;6.884;2023-07-20T11:59:31;21.00;99.90
53045;DHT22;38930;52.766;6.884;2023-07-20T12:02:01;21.10;99.90
53045;DHT22;38930;52.766;6.884;2023-07-20T12:04:28;21.20;99.90
53045;DHT22;38930;52.766;6.884;2023-07-20T12:06:54;21.30;99.90
53045;DHT22;38930;52.766;6.884;2023-07-20T12:09:23;21.40;99.90
53045;DHT22;38930;52.766;6.884;2023-07-20T12:11:50;21.50;99.90
53045;DHT22;38930;52.766;6.884;2023-07-20T12:14:15;21.60;99.90
53045;DHT22;38930;52.766;6.884;2023-07-20T12:16:41;21.60;99.90
53045;DHT22;38930;52.766;6.884;2023-07-20T12:19:09;21.70;99.90
53045;DHT22;38930;52.766;6.884;2023-07-20T12:21:37;21.60;99.90
53045;DHT22;38930;52.766;6.884;2023-07-20T12:24:03;21.60;99.90
53045;DHT22;38930;52.766;6.884;2023-07-20T12:26:31;21.60;99.90
53045;DHT22;38930;52.766;6.884;2023-07-20T12:28:57;21.60;99.90
53045;DHT22;38930;52.766;6.884;2023-07-20T12:31:24;21.70;99.90
53045;DHT22;38930;52.766;6.884;2023-07-20T12:33:51;21.90;99.90
53045;DHT22;38930;52.766;6.884;2023-07-20T12:36:17;21.80;99.90
53045;DHT22;38930;52.766;6.884;2023-07-20T12:38:43;21.80;99.90
53045;DHT22;38930;52.766;6.884;2023-07-20T12:41:10;21.90;99.90
53045;DHT22;38930;52.766;6.884;2023-07-20T12:43:38;21.80;99.90
53045;DHT22;38930;52.766;6.884;2023-07-20T12:46:04;21.80;99.90
53045;DHT22;38930;52.766;6.884;2023-07-20T12:48:30;21.90;99.90
53045;DHT22;38930;52.766;6.884;2023-07-20T12:50:56;22.00;99.90
53045;DHT22;38930;52.766;6.884;2023-07-20T12:53:21;22.10;99.90
53045;DHT22;38930;52.766;6.884;2023-07-20T12:55:47;22.10;99.90
53045;DHT22;38930;52.766;6.884;2023-07-20T12:58:13;22.10;99.90
53045;DHT22;38930;52.766;6.884;2023-07-20T13:00:39;22.10;99.90
53045;DHT22;38930;52.766;6.884;2023-07-20T13:03:06;22.10;99.90
53045;DHT22;38930;52.766;6.884;2023-07-20T13:05:34;22.20;99.90
53045;DHT22;38930;52.766;6.884;2023-07-20T13:08:00;22.30;99.90
53045;DHT22;38930;52.766;6.884;2023-07-20T13:10:26;22.40;99.90
53045;DHT22;38930;52.766;6.884;2023-07-20T13:12:52;22.60;99.90
53045;DHT22;38930;52.766;6.884;2023-07-20T13:15:18;22.70;99.90
53045;DHT22;38930;52.766;6.884;2023-07-20T13:17:44;22.80;99.90
53045;DHT22;38930;52.766;6.884;2023-07-20T13:20:11;22.90;99.90
53045;DHT22;38930;52.766;6.884;2023-07-20T13:22:38;23.00;99.90
53045;DHT22;38930;52.766;6.884;2023-07-20T13:25:03;23.10;99.90
53045;DHT22;38930;52.766;6.884;2023-07-20T13:27:29;23.30;99.90
53045;DHT22;38930;52.766;6.884;2023-07-20T13:29:56;23.30;99.90
53045;DHT22;38930;52.766;6.884;2023-07-20T13:32:22;23.30;99.90
53045;DHT22;38930;52.766;6.884;2023-07-20T13:34:47;23.40;99.90
53045;DHT22;38930;52.766;6.884;2023-07-20T13:37:14;23.10;99.90
53045;DHT22;38930;52.766;6.884;2023-07-20T13:39:40;23.10;99.90
53045;DHT22;38930;52.766;6.884;2023-07-20T13:42:06;23.00;99.90
53045;DHT22;38930;52.766;6.884;2023-07-20T13:44:32;22.80;99.90
53045;DHT22;38930;52.766;6.884;2023-07-20T13:46:58;22.70;99.90
53045;DHT22;38930;52.766;6.884;2023-07-20T13:49:24;22.80;99.90
53045;DHT22;38930;52.766;6.884;2023-07-20T13:51:49;22.70;99.90
53045;DHT22;38930;52.766;6.884;2023-07-20T13:54:15;22.70;99.90
53045;DHT22;38930;52.766;6.884;2023-07-20T13:56:41;22.70;99.90
53045;DHT22;38930;52.766;6.884;2023-07-20T13:59:06;22.60;99.90
53045;DHT22;38930;52.766;6.884;2023-07-20T14:01:32;22.40;99.90
53045;DHT22;38930;52.766;6.884;2023-07-20T14:04:01;22.40;99.90
53045;DHT22;38930;52.766;6.884;2023-07-20T14:06:31;22.40;99.90
53045;DHT22;38930;52.766;6.884;2023-07-20T14:08:58;22.50;99.90
53045;DHT22;38930;52.766;6.884;2023-07-20T14:11:23;22.60;99.90
53045;DHT22;38930;52.766;6.884;2023-07-20T14:13:53;22.80;99.90
53045;DHT22;38930;52.766;6.884;2023-07-20T14:16:20;22.90;99.90
53045;DHT22;38930;52.766;6.884;2023-07-20T14:18:46;22.80;99.90
53045;DHT22;38930;52.766;6.884;2023-07-20T14:21:18;22.70;99.90
53045;DHT22;38930;52.766;6.884;2023-07-20T14:23:48;22.50;99.90
53045;DHT22;38930;52.766;6.884;2023-07-20T14:26:14;22.40;99.90
53045;DHT22;38930;52.766;6.884;2023-07-20T14:28:39;22.10;99.90
53045;DHT22;38930;52.766;6.884;2023-07-20T14:31:05;21.90;99.90
53045;DHT22;38930;52.766;6.884;2023-07-20T14:33:31;21.80;99.90
53045;DHT22;38930;52.766;6.884;2023-07-20T14:35:57;21.70;99.90
53045;DHT22;38930;52.766;6.884;2023-07-20T14:38:22;21.70;99.90
53045;DHT22;38930;52.766;6.884;2023-07-20T14:40:48;21.60;99.90
53045;DHT22;38930;52.766;6.884;2023-07-20T14:43:14;21.60;99.90
53045;DHT22;38930;52.766;6.884;2023-07-20T14:45:42;21.60;99.90
53045;DHT22;38930;52.766;6.884;2023-07-20T14:48:08;21.60;99.90
53045;DHT22;38930;52.766;6.884;2023-07-20T14:50:34;21.50;99.90
53045;DHT22;38930;52.766;6.884;2023-07-20T14:53:00;21.60;99.90
53045;DHT22;38930;52.766;6.884;2023-07-20T14:55:26;21.80;99.90
53045;DHT22;38930;52.766;6.884;2023-07-20T14:57:51;21.90;99.90
53045;DHT22;38930;52.766;6.884;2023-07-20T15:00:18;22.00;99.90
53045;DHT22;38930;52.766;6.884;2023-07-20T15:02:43;22.20;99.90
53045;DHT22;38930;52.766;6.884;2023-07-20T15:05:12;22.30;99.90
53045;DHT22;38930;52.766;6.884;2023-07-20T15:07:45;22.40;99.90
53045;DHT22;38930;52.766;6.884;2023-07-20T15:10:11;22.40;99.90
53045;DHT22;38930;52.766;6.884;2023-07-20T15:12:36;22.30;99.90
53045;DHT22;38930;52.766;6.884;2023-07-20T15:15:07;22.30;99.90
53045;DHT22;38930;52.766;6.884;2023-07-20T15:17:36;22.40;99.90
53045;DHT22;38930;52.766;6.884;2023-07-20T15:20:03;22.50;99.90
53045;DHT22;38930;52.766;6.884;2023-07-20T15:22:35;22.40;99.90
53045;DHT22;38930;52.766;6.884;2023-07-20T15:25:05;22.20;99.90
53045;DHT22;38930;52.766;6.884;2023-07-20T15:27:31;22.10;99.90
53045;DHT22;38930;52.766;6.884;2023-07-20T15:29:57;22.00;99.90
53045;DHT22;38930;52.766;6.884;2023-07-20T15:32:22;21.90;99.90